Time;durP1;ratioP1;P1;durP2;ratioP2;P2;SDS_P1;SDS_P2;PMS_P1;PMS_P2;Temp;Humidity;BMP_temperature;BMP_pressure;BME280_temperature;BME280_humidity;BME280_pressure;Samples;Min_cycle;Max_cycle;Signal;HPM_P1;HPM_P2
2022/07/27 00:00:56;;;;;;;26.60;4.68;;;;;;;17.90;100.00;97841.84;5059537;28;20757;-62
2022/07/27 00:03:22;;;;;;;35.35;5.72;;;;;;;18.05;100.00;97849.59;5060392;28;20119;-60
2022/07/27 00:05:47;;;;;;;25.75;4.43;;;;;;;18.19;100.00;97845.91;5059227;28;20117;-60
2022/07/27 00:08:13;;;;;;;30.08;5.20;;;;;;;17.77;100.00;97846.28;5059460;28;20099;-62
2022/07/27 00:10:38;;;;;;;30.33;4.93;;;;;;;18.06;100.00;97838.06;5059289;28;20043;-60
2022/07/27 00:13:04;;;;;;;27.35;5.05;;;;;;;18.01;100.00;97846.34;5059549;28;20027;-61
2022/07/27 00:15:31;;;;;;;29.50;4.70;;;;;;;17.95;100.00;97843.28;5058830;28;20459;-61
2022/07/27 00:17:59;;;;;;;29.33;4.55;;;;;;;17.95;100.00;97836.22;5059209;28;20566;-61
2022/07/27 00:20:27;;;;;;;31.52;5.55;;;;;;;17.96;100.00;97842.31;5058311;28;20410;-62
2022/07/27 00:22:53;;;;;;;34.45;5.18;;;;;;;17.47;100.00;97842.28;5059174;28;20058;-61
2022/07/27 00:25:19;;;;;;;26.67;4.93;;;;;;;17.63;100.00;97841.19;5057852;28;20485;-61
2022/07/27 00:27:44;;;;;;;30.67;5.03;;;;;;;17.47;100.00;97847.53;5059181;28;20474;-60
2022/07/27 00:30:09;;;;;;;38.28;5.63;;;;;;;17.68;100.00;97846.94;5058762;28;20117;-62
2022/07/27 00:32:35;;;;;;;27.30;4.47;;;;;;;17.75;100.00;97842.91;5059694;28;20135;-62
2022/07/27 00:35:00;;;;;;;34.45;5.60;;;;;;;17.24;100.00;97841.28;5059848;28;20020;-60
2022/07/27 00:37:25;;;;;;;31.20;5.28;;;;;;;17.13;100.00;97842.03;5059217;28;20036;-61
2022/07/27 00:39:53;;;;;;;33.97;5.55;;;;;;;16.95;100.00;97836.25;5060087;28;20097;-60
2022/07/27 00:42:25;;;;;;;32.70;5.55;;;;;;;16.97;100.00;97838.78;5058230;28;20040;-60
2022/07/27 00:44:51;;;;;;;28.15;4.93;;;;;;;17.28;100.00;97841.91;5058463;28;20509;-61
2022/07/27 00:47:16;;;;;;;43.35;6.18;;;;;;;17.57;100.00;97833.69;5058354;28;20530;-61
2022/07/27 00:49:41;;;;;;;28.92;5.25;;;;;;;17.37;100.00;97836.00;5058784;28;20023;-60
2022/07/27 00:52:07;;;;;;;30.60;5.22;;;;;;;17.40;100.00;97837.56;5057608;28;20499;-60
2022/07/27 00:54:32;;;;;;;31.83;4.93;;;;;;;17.66;100.00;97843.59;5059263;28;20032;-62
2022/07/27 00:56:58;;;;;;;32.53;5.32;;;;;;;17.57;100.00;97839.84;5058704;28;20041;-61
2022/07/27 00:59:24;;;;;;;28.73;4.65;;;;;;;17.44;100.00;97844.28;5059363;28;20678;-61
2022/07/27 01:01:50;;;;;;;32.92;5.28;;;;;;;16.90;100.00;97840.16;5057965;28;20184;-60
2022/07/27 01:04:15;;;;;;;40.33;6.07;;;;;;;16.74;100.00;97838.56;5058536;28;20522;-60
2022/07/27 01:06:40;;;;;;;29.77;5.15;;;;;;;16.65;100.00;97841.84;5058514;28;20079;-61
2022/07/27 01:11:50;;;;;;;32.72;5.30;;;;;;;16.29;100.00;97842.53;5057958;28;20128;-60
2022/07/27 01:14:16;;;;;;;33.53;5.22;;;;;;;16.93;100.00;97851.34;5059044;28;20099;-60
2022/07/27 01:16:42;;;;;;;37.53;5.65;;;;;;;17.34;100.00;97847.56;5058474;28;20132;-61
2022/07/27 01:19:12;;;;;;;28.05;5.40;;;;;;;17.00;100.00;97840.34;5058722;28;20024;-61
2022/07/27 01:21:38;;;;;;;30.52;5.15;;;;;;;16.66;100.00;97842.66;5057718;28;20055;-60
2022/07/27 01:24:03;;;;;;;35.83;5.65;;;;;;;16.37;100.00;97841.03;5058988;28;20040;-61
2022/07/27 01:26:29;;;;;;;30.75;5.35;;;;;;;16.29;100.00;97832.84;5058196;28;20073;-60
2022/07/27 01:28:59;;;;;;;23.75;4.75;;;;;;;16.66;100.00;97835.59;5058376;28;20043;-60
2022/07/27 01:31:25;;;;;;;34.53;5.97;;;;;;;16.50;100.00;97829.69;5057702;28;20051;-60
2022/07/27 01:33:50;;;;;;;32.20;5.72;;;;;;;15.87;100.00;97834.72;5058735;28;20037;-60
2022/07/27 01:36:16;;;;;;;33.80;5.40;;;;;;;15.97;100.00;97833.19;5058803;28;20110;-60
2022/07/27 01:38:42;;;;;;;38.88;5.97;;;;;;;16.04;100.00;97833.59;5058217;28;20025;-60
2022/07/27 01:41:07;;;;;;;29.60;5.38;;;;;;;15.85;100.00;97833.97;5057367;28;20043;-60
2022/07/27 01:43:32;;;;;;;31.65;5.55;;;;;;;15.32;100.00;97830.34;5058385;28;20784;-62
2022/07/27 01:45:58;;;;;;;33.33;5.80;;;;;;;15.72;100.00;97823.38;5057585;28;20049;-61
2022/07/27 01:48:25;;;;;;;32.13;5.68;;;;;;;15.64;100.00;97827.44;5059049;28;20040;-61
2022/07/27 01:50:51;;;;;;;25.80;5.00;;;;;;;15.61;100.00;97829.31;5058126;28;20029;-60
2022/07/27 01:53:17;;;;;;;33.25;5.78;;;;;;;15.32;100.00;97825.09;5058722;28;20127;-60
2022/07/27 01:55:42;;;;;;;36.42;6.03;;;;;;;15.45;100.00;97831.25;5058334;28;20119;-61
2022/07/27 01:58:08;;;;;;;33.45;5.53;;;;;;;15.60;100.00;97829.41;5058669;28;20025;-60
2022/07/27 02:00:34;;;;;;;35.92;5.53;;;;;;;16.04;100.00;97830.16;5056994;28;20044;-60
2022/07/27 02:03:01;;;;;;;35.00;5.43;;;;;;;16.14;100.00;97812.81;5058513;28;20770;-60
2022/07/27 02:05:27;;;;;;;31.90;5.70;;;;;;;15.59;100.00;97810.19;5058285;28;20032;-61
2022/07/27 02:07:52;;;;;;;37.85;5.90;;;;;;;15.90;100.00;97820.50;5057882;28;20025;-62
2022/07/27 02:10:17;;;;;;;39.28;5.95;;;;;;;15.63;100.00;97812.63;5057454;28;20024;-60
2022/07/27 02:12:43;;;;;;;30.95;5.40;;;;;;;15.85;100.00;97822.63;5058632;28;20032;-61
2022/07/27 02:15:14;;;;;;;28.45;5.32;;;;;;;15.85;100.00;97818.19;5057500;28;20028;-61
2022/07/27 02:17:41;;;;;;;32.97;5.30;;;;;;;15.95;100.00;97821.94;5058636;28;20017;-62
2022/07/27 02:20:08;;;;;;;46.95;6.78;;;;;;;15.94;100.00;97820.22;5061758;28;20057;-60
2022/07/27 02:22:34;;;;;;;28.60;5.38;;;;;;;14.74;100.00;97827.75;5062191;28;20037;-62
2022/07/27 02:25:00;;;;;;;31.42;5.07;;;;;;;15.61;100.00;97816.19;5059606;28;20946;-62
2022/07/27 02:27:26;;;;;;;33.08;5.53;;;;;;;15.49;100.00;97811.72;5061492;28;20513;-60
2022/07/27 02:29:52;;;;;;;40.95;6.05;;;;;;;15.15;100.00;97815.66;5061820;28;20035;-61
2022/07/27 02:32:18;;;;;;;33.75;5.47;;;;;;;15.57;100.00;97813.88;5060185;28;20550;-61
2022/07/27 02:34:43;;;;;;;26.98;4.68;;;;;;;15.84;100.00;97816.50;5061645;28;20119;-62
2022/07/27 02:37:09;;;;;;;34.45;6.07;;;;;;;15.40;100.00;97817.56;5061299;28;20175;-61
2022/07/27 02:39:34;;;;;;;27.85;5.55;;;;;;;15.63;100.00;97813.47;5061000;28;20032;-61
2022/07/27 02:42:00;;;;;;;29.75;5.20;;;;;;;15.30;100.00;97811.22;5066024;28;20130;-61
2022/07/27 02:44:25;;;;;;;29.35;5.72;;;;;;;14.86;100.00;97822.69;5060877;28;20115;-61
2022/07/27 02:46:51;;;;;;;31.52;5.57;;;;;;;14.83;100.00;97829.81;5061279;28;20388;-62
2022/07/27 02:49:16;;;;;;;29.90;5.47;;;;;;;14.93;100.00;97829.25;5061295;28;20109;-61
2022/07/27 02:51:41;;;;;;;33.65;5.70;;;;;;;15.12;100.00;97824.53;5060164;28;20074;-61
2022/07/27 02:54:07;;;;;;;27.17;4.85;;;;;;;15.97;100.00;97822.66;5062603;28;20028;-61
2022/07/27 02:56:32;;;;;;;35.80;5.93;;;;;;;15.46;100.00;97811.94;5060645;28;20643;-62
2022/07/27 02:58:58;;;;;;;26.08;5.30;;;;;;;15.72;100.00;97812.03;5061523;28;20029;-60
2022/07/27 03:01:23;;;;;;;34.88;5.60;;;;;;;15.37;100.00;97809.88;5060743;28;20044;-61
2022/07/27 03:03:49;;;;;;;37.20;6.07;;;;;;;15.45;100.00;97819.91;5061317;28;20692;-61
2022/07/27 03:06:14;;;;;;;26.33;5.18;;;;;;;15.21;100.00;97823.97;5061009;28;20037;-62
2022/07/27 03:08:39;;;;;;;36.92;5.78;;;;;;;14.90;100.00;97819.78;5060838;28;20078;-60
2022/07/27 03:11:05;;;;;;;34.70;6.05;;;;;;;14.75;100.00;97826.81;5060211;28;20564;-61
2022/07/27 03:13:31;;;;;;;37.83;6.53;;;;;;;14.78;100.00;97826.63;5061678;28;20032;-61
2022/07/27 03:15:56;;;;;;;29.80;5.40;;;;;;;15.03;100.00;97825.97;5060700;28;20037;-61
2022/07/27 03:18:22;;;;;;;32.20;5.68;;;;;;;15.07;100.00;97821.38;5060495;28;20443;-62
2022/07/27 03:20:47;;;;;;;32.38;5.68;;;;;;;14.84;100.00;97833.28;5059404;28;20141;-61
2022/07/27 03:23:13;;;;;;;27.15;5.43;;;;;;;15.03;100.00;97835.63;5060902;28;20597;-61
2022/07/27 03:25:38;;;;;;;31.77;5.72;;;;;;;15.07;100.00;97833.66;5060219;28;20051;-61
2022/07/27 03:28:04;;;;;;;36.28;6.32;;;;;;;15.04;100.00;97837.31;5060601;28;20036;-60
2022/07/27 03:30:30;;;;;;;30.55;5.43;;;;;;;15.27;100.00;97828.00;5059591;28;20032;-61
2022/07/27 03:32:55;;;;;;;36.53;6.00;;;;;;;15.28;100.00;97829.69;5060970;28;20032;-62
2022/07/27 03:35:21;;;;;;;34.25;5.60;;;;;;;15.41;100.00;97835.03;5060078;28;20029;-61
2022/07/27 03:37:46;;;;;;;30.20;5.53;;;;;;;15.30;100.00;97835.69;5060077;28;20036;-61
2022/07/27 03:40:11;;;;;;;50.78;6.78;;;;;;;15.18;100.00;97845.19;5058559;28;20028;-61
2022/07/27 03:42:37;;;;;;;34.58;5.88;;;;;;;15.16;100.00;97836.56;5059816;28;20027;-61
2022/07/27 03:45:04;;;;;;;42.63;6.22;;;;;;;14.96;100.00;97844.81;5060184;28;20063;-62
2022/07/27 03:47:29;;;;;;;27.17;5.18;;;;;;;15.52;100.00;97843.06;5059821;28;20071;-62
2022/07/27 03:49:54;;;;;;;31.02;5.47;;;;;;;15.00;100.00;97849.81;5060226;28;20470;-61
2022/07/27 03:52:20;;;;;;;34.00;6.05;;;;;;;14.44;100.00;97854.84;5059750;28;20144;-63
2022/07/27 03:54:46;;;;;;;28.83;5.72;;;;;;;13.97;100.00;97866.34;5060463;28;20029;-61
2022/07/27 03:57:11;;;;;;;41.65;6.72;;;;;;;13.95;100.00;97878.69;5059428;28;20048;-61
2022/07/27 03:59:37;;;;;;;30.60;6.00;;;;;;;13.78;100.00;97873.53;5060523;28;20020;-62
2022/07/27 04:02:04;;;;;;;37.33;6.63;;;;;;;14.20;100.00;97866.78;5059146;28;20044;-62
2022/07/27 04:04:29;;;;;;;31.85;5.97;;;;;;;14.19;100.00;97871.19;5061069;28;20036;-61
2022/07/27 04:06:55;;;;;;;31.40;6.35;;;;;;;14.73;100.00;97868.06;5060368;28;20047;-61
2022/07/27 04:09:20;;;;;;;25.90;4.70;;;;;;;15.43;100.00;97864.66;5059345;28;20032;-60
2022/07/27 04:11:45;;;;;;;31.38;5.72;;;;;;;14.50;100.00;97858.06;5056238;28;20040;-63
2022/07/27 04:14:11;;;;;;;29.98;5.80;;;;;;;14.34;100.00;97858.97;5058560;28;20107;-61
2022/07/27 04:16:38;;;;;;;33.45;6.07;;;;;;;14.27;100.00;97871.59;5059597;28;20028;-61
2022/07/27 04:19:03;;;;;;;29.08;5.72;;;;;;;15.07;100.00;97862.53;5059815;28;20139;-60
2022/07/27 04:21:28;;;;;;;31.00;6.13;;;;;;;14.66;100.00;97874.63;5058930;28;20072;-61
2022/07/27 04:23:54;;;;;;;32.38;6.28;;;;;;;14.77;100.00;97866.09;5060414;28;20059;-61
2022/07/27 04:26:19;;;;;;;30.85;5.75;;;;;;;15.15;100.00;97876.06;5058943;28;20036;-61
2022/07/27 04:28:45;;;;;;;31.70;5.90;;;;;;;15.28;100.00;97866.47;5059631;28;20046;-62
2022/07/27 04:31:10;;;;;;;32.60;5.60;;;;;;;15.36;100.00;97872.09;5058660;28;20054;-61
2022/07/27 04:33:35;;;;;;;26.35;5.35;;;;;;;15.55;100.00;97863.91;5060027;28;20104;-60
2022/07/27 04:36:01;;;;;;;31.60;5.97;;;;;;;15.61;100.00;97862.66;5058907;28;20032;-62
2022/07/27 04:38:26;;;;;;;32.63;6.05;;;;;;;15.82;100.00;97857.84;5059257;28;20039;-60
2022/07/27 04:40:51;;;;;;;38.90;6.30;;;;;;;15.77;100.00;97862.56;5058080;28;20129;-61
2022/07/27 04:43:18;;;;;;;34.83;5.55;;;;;;;16.09;100.00;97857.00;5058801;28;20074;-62
2022/07/27 04:45:43;;;;;;;31.55;5.90;;;;;;;15.49;100.00;97863.44;5059363;28;20072;-61
2022/07/27 04:48:09;;;;;;;33.17;5.88;;;;;;;15.71;100.00;97865.53;5059792;28;20020;-63
2022/07/27 04:50:39;;;;;;;31.70;6.05;;;;;;;16.49;100.00;97864.88;5058886;28;20040;-63
2022/07/27 04:53:05;;;;;;;34.90;6.22;;;;;;;16.61;100.00;97858.75;5060805;28;20063;-64
2022/07/27 04:55:30;;;;;;;28.80;5.53;;;;;;;16.56;100.00;97858.25;5059790;28;20119;-62
2022/07/27 04:57:55;;;;;;;24.65;5.30;;;;;;;16.95;100.00;97862.59;5059683;28;20028;-65
2022/07/27 05:00:21;;;;;;;36.60;6.32;;;;;;;17.01;100.00;97876.31;5058770;28;20119;-61
2022/07/27 05:02:46;;;;;;;33.13;5.63;;;;;;;17.27;100.00;97877.94;5059640;28;20025;-62
2022/07/27 05:05:12;;;;;;;30.70;5.78;;;;;;;17.61;100.00;97869.44;5058588;28;20056;-62
2022/07/27 05:07:37;;;;;;;34.03;5.70;;;;;;;17.78;100.00;97866.44;5059304;28;20434;-61
2022/07/27 05:10:03;;;;;;;49.63;7.70;;;;;;;18.06;100.00;97869.72;5057742;28;20051;-62
2022/07/27 05:12:28;;;;;;;25.00;5.28;;;;;;;18.95;100.00;97865.69;5058915;28;20032;-62
2022/07/27 05:14:54;;;;;;;28.85;5.72;;;;;;;17.67;100.00;97872.50;5059598;28;20032;-64
2022/07/27 05:17:19;;;;;;;36.45;6.40;;;;;;;17.96;100.00;97879.25;5058127;28;20119;-61
2022/07/27 05:19:44;;;;;;;31.08;5.22;;;;;;;18.86;100.00;97876.97;5059583;28;20071;-61
2022/07/27 05:22:10;;;;;;;28.42;5.50;;;;;;;17.40;100.00;97893.75;5057926;28;20056;-62
2022/07/27 05:24:35;;;;;;;32.67;5.93;;;;;;;17.48;100.00;97894.06;5058724;28;20056;-61
2022/07/27 05:27:01;;;;;;;28.98;5.80;;;;;;;17.19;100.00;97888.22;5058806;28;20161;-61
2022/07/27 05:29:26;;;;;;;34.17;6.20;;;;;;;17.61;100.00;97886.13;5059525;28;20060;-61
2022/07/27 05:31:51;;;;;;;39.22;7.13;;;;;;;17.56;100.00;97887.41;5057547;28;20507;-63
2022/07/27 05:34:17;;;;;;;22.50;5.40;;;;;;;18.26;100.00;97887.56;5058379;28;20025;-64
2022/07/27 05:36:42;;;;;;;25.60;5.50;;;;;;;18.59;100.00;97878.06;5058207;28;20289;-62
2022/07/27 05:39:07;;;;;;;29.38;6.28;;;;;;;18.15;100.00;97887.53;5058265;28;20090;-64
2022/07/27 05:41:33;;;;;;;31.02;6.40;;;;;;;18.47;100.00;97892.19;5057497;28;20052;-61
2022/07/27 05:43:58;;;;;;;28.35;5.78;;;;;;;18.32;100.00;97901.28;5058493;28;20029;-61
2022/07/27 05:46:23;;;;;;;26.13;6.00;;;;;;;18.85;100.00;97888.50;5058453;28;20120;-62
2022/07/27 05:48:49;;;;;;;39.17;6.85;;;;;;;19.38;100.00;97875.53;5054903;28;20090;-60
2022/07/27 05:51:14;;;;;;;30.63;5.63;;;;;;;19.88;100.00;97879.59;5054957;28;20132;-61
2022/07/27 05:53:40;;;;;;;33.20;6.32;;;;;;;19.10;100.00;97881.31;5056371;28;20831;-60
2022/07/27 05:56:06;;;;;;;37.92;6.07;;;;;;;18.88;100.00;97893.56;5058563;28;20036;-61
2022/07/27 05:58:32;;;;;;;29.25;5.20;;;;;;;18.96;100.00;97896.44;5060295;28;20019;-62
2022/07/27 06:00:58;;;;;;;27.25;5.35;;;;;;;19.43;100.00;97905.13;5060461;28;20040;-61
2022/07/27 06:03:23;;;;;;;31.45;6.07;;;;;;;19.15;100.00;97898.53;5061698;28;20379;-61
2022/07/27 06:05:49;;;;;;;38.47;6.72;;;;;;;18.91;100.00;97903.88;5058429;28;20145;-60
2022/07/27 06:08:14;;;;;;;24.42;5.57;;;;;;;18.84;100.00;97898.22;5061570;28;20030;-61
2022/07/27 06:10:40;;;;;;;31.80;6.25;;;;;;;19.18;100.00;97895.63;5059919;28;20790;-61
2022/07/27 06:13:08;;;;;;;33.80;6.55;;;;;;;18.97;100.00;97903.41;5060814;28;20678;-60
2022/07/27 06:15:35;;;;;;;30.90;6.20;;;;;;;19.91;100.00;97904.00;5058133;28;20036;-61
2022/07/27 06:18:02;;;;;;;38.60;6.55;;;;;;;20.41;100.00;97899.00;5058847;28;20024;-61
2022/07/27 06:20:28;;;;;;;30.50;6.30;;;;;;;20.78;100.00;97897.78;5060405;28;20041;-61
2022/07/27 06:22:58;;;;;;;27.92;5.78;;;;;;;21.05;100.00;97897.25;5062031;28;20075;-61
2022/07/27 06:25:24;;;;;;;28.90;6.18;;;;;;;22.30;100.00;97887.16;5061132;28;20044;-63
2022/07/27 06:27:50;;;;;;;24.35;5.70;;;;;;;21.65;100.00;97886.78;5061447;28;20551;-60
2022/07/27 06:30:17;;;;;;;32.45;6.40;;;;;;;23.23;100.00;97882.16;5060474;28;20025;-62
2022/07/27 06:32:43;;;;;;;27.85;5.63;;;;;;;22.81;100.00;97886.97;5060867;28;20696;-61
2022/07/27 06:35:10;;;;;;;25.38;5.07;;;;;;;23.73;100.00;97880.94;5060598;28;20045;-61
2022/07/27 06:37:36;;;;;;;26.20;5.20;;;;;;;23.59;100.00;97884.09;5060979;28;20052;-61
2022/07/27 06:40:02;;;;;;;34.03;6.03;;;;;;;24.57;100.00;97878.94;5060487;28;20494;-62
2022/07/27 06:42:28;;;;;;;23.20;5.00;;;;;;;24.02;100.00;97878.13;5059630;28;20581;-61
2022/07/27 06:44:54;;;;;;;23.30;5.05;;;;;;;24.37;100.00;97873.78;5061739;28;20134;-64
2022/07/27 06:47:19;;;;;;;28.83;5.32;;;;;;;23.90;100.00;97889.13;5060458;28;20047;-63
2022/07/27 06:49:45;;;;;;;25.15;5.03;;;;;;;23.60;100.00;97888.41;5060406;28;20025;-61
2022/07/27 06:52:10;;;;;;;26.02;4.85;;;;;;;24.78;100.00;97895.47;5059928;28;20097;-62
2022/07/27 06:54:35;;;;;;;24.25;4.90;;;;;;;24.35;100.00;97886.38;5061195;28;20056;-61
2022/07/27 06:57:01;;;;;;;25.98;5.10;;;;;;;24.61;97.46;97883.84;5060328;28;20048;-62
2022/07/27 06:59:26;;;;;;;27.33;5.00;;;;;;;25.64;87.44;97882.25;5065256;28;20032;-62
2022/07/27 07:01:51;;;;;;;23.00;4.90;;;;;;;24.66;97.89;97888.69;5059938;28;20839;-63
2022/07/27 07:04:17;;;;;;;22.70;4.70;;;;;;;22.90;100.00;97889.63;5061039;28;20465;-62
2022/07/27 07:06:43;;;;;;;28.50;4.85;;;;;;;25.03;98.89;97874.25;5060141;28;20145;-60
2022/07/27 07:09:08;;;;;;;21.10;4.35;;;;;;;25.31;89.72;97879.44;5061148;28;20020;-61
2022/07/27 07:11:34;;;;;;;22.92;4.70;;;;;;;25.49;93.95;97888.22;5059765;28;20059;-63
2022/07/27 07:13:59;;;;;;;17.05;4.25;;;;;;;25.08;95.16;97885.31;5060767;28;20020;-61
2022/07/27 07:16:25;;;;;;;18.60;4.00;;;;;;;25.00;95.38;97882.59;5060364;28;20051;-63
2022/07/27 07:18:50;;;;;;;21.60;4.60;;;;;;;25.31;88.46;97882.13;5060126;28;20029;-61
2022/07/27 07:21:16;;;;;;;25.73;4.95;;;;;;;23.88;100.00;97883.13;5064480;28;20040;-62
2022/07/27 07:23:41;;;;;;;27.80;5.03;;;;;;;25.47;94.90;97882.19;5049246;28;20119;-63
2022/07/27 07:26:07;;;;;;;21.38;4.50;;;;;;;24.84;94.08;97879.81;5058570;28;20043;-62
2022/07/27 07:28:32;;;;;;;23.15;4.65;;;;;;;24.69;91.71;97876.91;5058151;28;20031;-61
2022/07/27 07:30:59;;;;;;;25.67;5.25;;;;;;;24.31;100.00;97869.03;5058266;28;20048;-61
2022/07/27 07:33:25;;;;;;;24.75;4.70;;;;;;;23.97;100.00;97872.41;5060331;28;20052;-62
2022/07/27 07:35:51;;;;;;;23.88;5.05;;;;;;;25.67;83.35;97869.44;5057815;28;20559;-61
2022/07/27 07:38:16;;;;;;;22.27;4.25;;;;;;;23.68;100.00;97877.88;5060222;28;20032;-61
2022/07/27 07:40:41;;;;;;;21.75;4.28;;;;;;;24.82;100.00;97862.13;5058831;28;20457;-62
2022/07/27 07:43:07;;;;;;;19.38;4.47;;;;;;;24.84;100.00;97861.16;5060801;28;20024;-61
2022/07/27 07:45:36;;;;;;;23.30;4.68;;;;;;;24.34;100.00;97862.59;5059853;28;20726;-61
2022/07/27 07:48:03;;;;;;;25.77;4.80;;;;;;;25.52;92.18;97858.53;5059965;28;20036;-61
2022/07/27 07:50:28;;;;;;;30.90;5.07;;;;;;;25.64;86.73;97858.22;5058956;28;20037;-61
2022/07/27 07:52:54;;;;;;;20.63;4.63;;;;;;;27.42;71.61;97854.94;5060154;28;20017;-64
2022/07/27 07:55:26;;;;;;;21.05;4.40;;;;;;;26.37;74.57;97856.72;5059196;28;20040;-60
2022/07/27 07:57:52;;;;;;;19.63;4.32;;;;;;;25.91;80.63;97855.28;5059529;28;20414;-62
2022/07/27 08:00:19;;;;;;;23.70;4.93;;;;;;;25.53;84.68;97860.22;5058621;28;20661;-61
2022/07/27 08:02:48;;;;;;;20.27;4.68;;;;;;;25.95;86.68;97862.03;5059248;28;20097;-62
2022/07/27 08:05:14;;;;;;;20.65;4.50;;;;;;;25.64;85.09;97851.06;5059341;28;20063;-61
2022/07/27 08:07:40;;;;;;;21.48;4.38;;;;;;;26.99;76.78;97846.34;5059395;28;20442;-60
2022/07/27 08:10:07;;;;;;;24.45;5.03;;;;;;;27.60;74.38;97854.66;5059090;28;20070;-59
2022/07/27 08:12:33;;;;;;;20.90;4.63;;;;;;;26.57;71.76;97852.72;5059021;28;20050;-60
2022/07/27 08:14:59;;;;;;;18.13;4.05;;;;;;;28.47;63.36;97850.94;5059366;28;20560;-60
2022/07/27 08:17:24;;;;;;;21.58;4.65;;;;;;;30.38;55.22;97854.78;5057339;28;20131;-60
2022/07/27 08:19:49;;;;;;;18.30;4.38;;;;;;;27.89;58.62;97858.56;5059401;28;20024;-60
2022/07/27 08:22:15;;;;;;;20.92;4.20;;;;;;;29.89;54.98;97860.91;5058703;28;20044;-59
2022/07/27 08:24:40;;;;;;;34.25;5.53;;;;;;;30.90;50.88;97848.19;5059554;28;20799;-59
2022/07/27 08:27:05;;;;;;;18.05;3.95;;;;;;;29.65;50.73;97859.31;5058013;28;20068;-59
2022/07/27 08:29:31;;;;;;;22.52;4.53;;;;;;;29.51;51.89;97861.84;5059566;28;20076;-59
2022/07/27 08:31:56;;;;;;;14.52;3.80;;;;;;;34.20;43.74;97851.78;5057829;28;20052;-61
2022/07/27 08:34:21;;;;;;;15.27;3.10;;;;;;;32.20;44.28;97853.81;5059062;28;20498;-60
2022/07/27 08:36:47;;;;;;;22.08;4.45;;;;;;;33.86;43.60;97857.34;5058393;28;20037;-60
2022/07/27 08:39:12;;;;;;;13.45;3.40;;;;;;;35.41;39.96;97855.13;5058791;28;20028;-60
2022/07/27 08:41:39;;;;;;;14.00;3.50;;;;;;;33.27;42.00;97852.97;5057463;28;20040;-60
2022/07/27 08:44:06;;;;;;;16.52;3.63;;;;;;;32.83;43.82;97858.03;5058856;28;20486;-60
2022/07/27 08:46:31;;;;;;;12.77;3.55;;;;;;;32.86;43.56;97865.69;5058445;28;20660;-61
2022/07/27 08:49:00;;;;;;;14.85;3.65;;;;;;;32.44;44.78;97870.41;5058605;28;20043;-61
2022/07/27 08:51:26;;;;;;;14.05;3.47;;;;;;;34.40;40.86;97865.16;5057636;28;20032;-62
2022/07/27 08:53:53;;;;;;;17.13;3.40;;;;;;;34.06;41.05;97856.41;5059013;28;20032;-60
2022/07/27 08:56:19;;;;;;;19.35;3.38;;;;;;;33.37;40.60;97864.16;5058778;28;20032;-60
2022/07/27 08:58:44;;;;;;;25.27;3.83;;;;;;;34.14;40.47;97869.69;5058736;28;20032;-60
2022/07/27 09:01:10;;;;;;;15.60;3.85;;;;;;;34.16;38.58;97862.19;5057299;28;20132;-60
2022/07/27 09:03:35;;;;;;;13.63;3.30;;;;;;;34.26;37.89;97862.56;5049355;28;20021;-61
2022/07/27 09:06:02;;;;;;;10.13;3.25;;;;;;;33.33;39.94;97858.34;5058722;28;20127;-60
2022/07/27 09:08:30;;;;;;;12.10;3.42;;;;;;;35.19;37.74;97852.84;5058937;28;20490;-60
2022/07/27 09:10:58;;;;;;;13.18;3.17;;;;;;;32.51;40.73;97849.66;5058017;28;20466;-60
2022/07/27 09:13:26;;;;;;;14.32;3.70;;;;;;;34.29;39.94;97862.09;5059143;28;20032;-60
2022/07/27 09:15:55;;;;;;;10.95;3.40;;;;;;;34.30;39.90;97852.94;5058243;28;20047;-61
2022/07/27 09:18:27;;;;;;;16.35;3.67;;;;;;;34.99;38.78;97857.63;5058888;28;20565;-60
2022/07/27 09:21:10;;;;;;;13.50;3.33;;;;;;;32.90;39.49;97861.53;5057610;28;20055;-60
2022/07/27 09:23:37;;;;;;;12.77;3.42;;;;;;;34.82;36.35;97857.38;5057746;28;20024;-61
2022/07/27 09:26:13;;;;;;;11.13;3.40;;;;;;;35.02;36.27;97855.28;5057432;28;20036;-60
2022/07/27 09:28:39;;;;;;;11.45;3.22;;;;;;;32.95;37.24;97850.91;5058375;28;20024;-60
2022/07/27 09:31:13;;;;;;;12.70;3.25;;;;;;;33.60;38.06;97852.84;5057808;28;20036;-60
2022/07/27 09:33:50;;;;;;;13.77;3.58;;;;;;;30.09;44.44;97848.50;5058441;28;20028;-60
2022/07/27 09:36:17;;;;;;;13.63;4.13;;;;;;;31.75;40.90;97847.22;5058389;28;20046;-60
2022/07/27 09:39:07;;;;;;;15.60;3.80;;;;;;;33.61;37.38;97846.41;5058463;28;20346;-60
2022/07/27 09:41:42;;;;;;;15.65;3.70;;;;;;;31.43;42.40;97841.44;5057164;28;20590;-59
2022/07/27 09:44:08;;;;;;;12.85;3.53;;;;;;;29.42;46.45;97853.03;5058416;28;20085;-60
2022/07/27 09:46:38;;;;;;;17.00;4.43;;;;;;;30.08;45.12;97848.69;5057399;28;20036;-60
2022/07/27 09:49:05;;;;;;;15.85;4.22;;;;;;;29.40;46.36;97847.03;5057724;28;20048;-60
2022/07/27 09:51:30;;;;;;;13.52;3.80;;;;;;;28.89;48.77;97838.84;5057520;28;20037;-61
2022/07/27 09:53:59;;;;;;;14.20;3.88;;;;;;;30.88;43.85;97841.31;5058687;28;20165;-60
2022/07/27 09:56:27;;;;;;;13.98;3.85;;;;;;;30.42;44.90;97839.94;5057959;28;20037;-60
2022/07/27 09:58:55;;;;;;;15.20;3.90;;;;;;;29.03;45.40;97834.53;5058184;28;20064;-59
2022/07/27 10:01:26;;;;;;;48.75;8.02;;;;;;;29.71;45.40;97837.91;5052024;28;20612;-59
2022/07/27 10:03:54;;;;;;;17.52;4.40;;;;;;;28.86;49.00;97839.22;5056005;28;20673;-59
2022/07/27 10:06:21;;;;;;;13.50;3.53;;;;;;;28.56;50.72;97841.88;5060297;28;20040;-61
2022/07/27 10:08:48;;;;;;;16.88;4.05;;;;;;;28.71;49.89;97841.03;5060422;28;20108;-60
2022/07/27 10:11:14;;;;;;;13.27;3.80;;;;;;;27.58;53.47;97845.16;5059927;28;20047;-60
2022/07/27 10:13:40;;;;;;;18.15;4.22;;;;;;;28.43;52.48;97845.13;5060371;28;20393;-62
2022/07/27 10:16:10;;;;;;;16.67;4.15;;;;;;;29.41;51.03;97846.03;5060660;28;20094;-59
2022/07/27 10:18:46;;;;;;;17.50;3.97;;;;;;;30.81;46.02;97843.16;5059923;28;20032;-62
2022/07/27 10:21:12;;;;;;;13.07;3.67;;;;;;;29.04;48.64;97846.91;5059096;28;20044;-61
2022/07/27 10:23:37;;;;;;;14.07;3.60;;;;;;;29.06;52.29;97852.09;5060484;28;20027;-62
2022/07/27 10:26:17;;;;;;;16.17;3.85;;;;;;;30.13;48.93;97857.03;5059660;28;20040;-61
2022/07/27 10:28:57;;;;;;;17.55;4.15;;;;;;;29.52;49.15;97852.78;5059918;28;20050;-61
2022/07/27 10:31:25;;;;;;;12.82;3.70;;;;;;;28.90;49.64;97853.94;5059096;28;20044;-61
2022/07/27 10:33:59;;;;;;;13.82;3.80;;;;;;;30.53;50.91;97850.19;5060398;28;20120;-60
2022/07/27 10:36:30;;;;;;;14.55;3.80;;;;;;;31.45;44.72;97858.25;5059728;28;20448;-60
2022/07/27 10:38:58;;;;;;;13.93;3.60;;;;;;;31.04;46.04;97842.91;5060718;28;20033;-61
2022/07/27 10:41:34;;;;;;;12.32;3.50;;;;;;;31.31;46.97;97855.50;5061580;28;20162;-60
2022/07/27 10:44:19;;;;;;;9.13;3.08;;;;;;;31.84;44.83;97848.72;5063888;28;20025;-60
2022/07/27 10:46:54;;;;;;;15.75;4.00;;;;;;;29.65;46.39;97853.94;5063813;28;20040;-60
2022/07/27 10:49:22;;;;;;;18.25;3.85;;;;;;;29.58;47.69;97851.19;5063234;28;20063;-60
2022/07/27 10:51:49;;;;;;;14.13;3.65;;;;;;;28.10;52.62;97855.25;5063087;28;20976;-61
2022/07/27 10:54:38;;;;;;;16.35;3.72;;;;;;;28.97;52.10;97856.75;5063837;28;20908;-60
2022/07/27 10:57:06;;;;;;;14.07;3.92;;;;;;;29.16;50.84;97855.38;5059497;28;20036;-61
2022/07/27 10:59:42;;;;;;;16.05;4.20;;;;;;;30.00;48.87;97868.47;5063296;28;20107;-61
2022/07/27 11:02:08;;;;;;;17.55;3.97;;;;;;;29.21;49.16;97874.47;5063298;28;20143;-60
2022/07/27 11:04:42;;;;;;;20.10;4.50;;;;;;;27.41;56.14;97866.66;5063491;28;20028;-60
2022/07/27 11:07:08;;;;;;;17.80;4.63;;;;;;;28.21;55.46;97864.72;5062395;28;20032;-60
2022/07/27 11:09:37;;;;;;;17.45;4.50;;;;;;;28.54;54.79;97867.19;5063513;28;20620;-61
2022/07/27 11:12:08;;;;;;;17.40;4.30;;;;;;;28.00;54.96;97870.75;5062710;28;20033;-63
2022/07/27 11:14:51;;;;;;;14.90;3.60;;;;;;;27.81;56.40;97861.25;5063532;28;20024;-60
2022/07/27 11:17:19;;;;;;;19.08;4.55;;;;;;;27.58;56.03;97871.94;5062657;28;20365;-60
2022/07/27 11:19:57;;;;;;;17.38;3.95;;;;;;;28.89;52.60;97868.38;5062752;28;20051;-60